Time;durP1;ratioP1;P1;durP2;ratioP2;P2;SDS_P1;SDS_P2;PMS_P1;PMS_P2;Temp;Humidity;BMP_temperature;BMP_pressure;BME280_temperature;BME280_humidity;BME280_pressure;Samples;Min_cycle;Max_cycle;Signal;HPM_P1;HPM_P2
2023/06/30 00:00:17;;;;;;;9.45;3.95;;;13.50;99.90;;;;;;4978587;28;20053;-65
2023/06/30 00:02:43;;;;;;;12.75;3.85;;;13.40;99.90;;;;;;4994804;28;20038;-65
2023/06/30 00:05:09;;;;;;;11.05;4.80;;;13.40;99.90;;;;;;5012272;28;20042;-64
2023/06/30 00:07:36;;;;;;;10.20;3.80;;;13.40;99.90;;;;;;5012278;28;20073;-64
2023/06/30 00:10:02;;;;;;;10.85;4.03;;;13.40;99.90;;;;;;5012312;28;20092;-65
2023/06/30 00:12:27;;;;;;;9.13;3.55;;;13.40;99.90;;;;;;5011393;28;20050;-65
2023/06/30 00:14:53;;;;;;;7.72;3.53;;;13.40;99.90;;;;;;4994397;28;20133;-65
2023/06/30 00:17:19;;;;;;;7.13;3.20;;;13.40;99.90;;;;;;5012439;28;20069;-64
2023/06/30 00:19:44;;;;;;;9.18;3.58;;;13.40;99.90;;;;;;5030905;28;20099;-65
2023/06/30 00:22:11;;;;;;;10.10;3.50;;;13.30;99.90;;;;;;5032280;28;20041;-65
2023/06/30 00:24:37;;;;;;;6.50;3.13;;;13.30;99.90;;;;;;5031879;28;20485;-65
2023/06/30 00:27:02;;;;;;;15.63;3.78;;;13.30;99.90;;;;;;5026799;28;20073;-64
2023/06/30 00:29:29;;;;;;;9.43;4.22;;;13.30;99.90;;;;;;4994739;28;20042;-65
2023/06/30 00:31:54;;;;;;;9.45;3.75;;;13.30;99.90;;;;;;4993714;28;20076;-65
2023/06/30 00:34:20;;;;;;;9.48;3.47;;;13.30;99.90;;;;;;4994016;28;20467;-65
2023/06/30 00:36:45;;;;;;;8.32;3.55;;;13.30;99.90;;;;;;4978285;28;20405;-65
2023/06/30 00:39:11;;;;;;;7.22;3.70;;;13.20;99.90;;;;;;4994740;28;20100;-64
2023/06/30 00:41:37;;;;;;;8.40;3.55;;;13.20;99.90;;;;;;4994051;28;20447;-65
2023/06/30 00:44:03;;;;;;;8.73;3.30;;;13.20;99.90;;;;;;4994133;28;20128;-65
2023/06/30 00:46:29;;;;;;;7.78;3.80;;;13.20;99.90;;;;;;5011383;28;20038;-65
2023/06/30 00:48:54;;;;;;;12.60;3.83;;;13.10;99.90;;;;;;4994705;28;20081;-65
2023/06/30 00:51:20;;;;;;;9.05;3.58;;;13.10;99.90;;;;;;4978245;28;20038;-64
2023/06/30 00:53:47;;;;;;;8.55;3.45;;;13.10;99.90;;;;;;5011145;28;20041;-65
2023/06/30 00:56:12;;;;;;;9.38;3.25;;;13.10;99.90;;;;;;4994442;28;20528;-65
2023/06/30 00:58:38;;;;;;;7.28;2.65;;;13.10;99.90;;;;;;4978394;28;20078;-65
2023/06/30 01:01:17;;;;;;;11.68;3.42;;;13.00;99.90;;;;;;4993477;28;20046;-65
2023/06/30 01:03:48;;;;;;;9.00;3.60;;;13.00;99.90;;;;;;5011913;28;20038;-64
2023/06/30 01:06:29;;;;;;;9.30;3.35;;;13.00;99.90;;;;;;4994187;28;20042;-65
2023/06/30 01:09:02;;;;;;;7.32;3.28;;;13.00;99.90;;;;;;5010483;28;20041;-64
2023/06/30 01:11:28;;;;;;;10.10;4.22;;;12.90;99.90;;;;;;4978593;28;20061;-65
2023/06/30 01:13:57;;;;;;;11.48;3.75;;;12.90;99.90;;;;;;4993926;28;20089;-65
2023/06/30 01:16:24;;;;;;;8.75;3.80;;;12.90;99.90;;;;;;4993336;28;20046;-65
2023/06/30 01:18:54;;;;;;;11.55;4.93;;;12.90;99.90;;;;;;4994048;28;20128;-65
2023/06/30 01:21:23;;;;;;;10.88;3.88;;;12.80;99.90;;;;;;5011874;28;20121;-65
2023/06/30 01:23:58;;;;;;;10.32;4.10;;;12.80;99.90;;;;;;4993614;28;20042;-65
2023/06/30 01:26:23;;;;;;;6.43;3.72;;;12.80;99.90;;;;;;4994228;28;20046;-65
2023/06/30 01:28:52;;;;;;;9.10;3.95;;;12.80;99.90;;;;;;5010978;28;20350;-65
2023/06/30 01:31:19;;;;;;;9.65;4.47;;;12.90;99.90;;;;;;4994031;28;20491;-65
2023/06/30 01:33:45;;;;;;;9.80;3.60;;;12.90;99.90;;;;;;4994170;28;20050;-65
2023/06/30 01:36:11;;;;;;;12.23;4.80;;;12.80;99.90;;;;;;4993439;28;20041;-65
2023/06/30 01:38:37;;;;;;;10.70;3.90;;;12.80;99.90;;;;;;5011710;28;20041;-65
2023/06/30 01:41:06;;;;;;;10.00;3.85;;;12.80;99.90;;;;;;5011263;28;20069;-65
2023/06/30 01:43:33;;;;;;;9.20;4.00;;;12.80;99.90;;;;;;5012270;28;20079;-65
2023/06/30 01:45:59;;;;;;;9.82;3.88;;;12.80;99.90;;;;;;5014828;28;20586;-64
2023/06/30 01:48:26;;;;;;;10.75;4.20;;;12.70;99.90;;;;;;4997405;28;20084;-64
2023/06/30 01:50:53;;;;;;;9.90;4.00;;;12.70;99.90;;;;;;4996537;28;20149;-64
2023/06/30 01:53:19;;;;;;;6.65;2.78;;;12.70;99.90;;;;;;5014862;28;20451;-64
2023/06/30 01:55:48;;;;;;;13.07;4.45;;;12.70;99.90;;;;;;4997093;28;20042;-64
2023/06/30 01:58:16;;;;;;;6.15;3.33;;;12.70;99.90;;;;;;5013744;28;20042;-64
2023/06/30 02:00:41;;;;;;;9.38;3.25;;;12.70;99.90;;;;;;4997165;28;20093;-65
2023/06/30 02:03:07;;;;;;;7.88;3.65;;;12.70;99.90;;;;;;4997268;28;20395;-64
2023/06/30 02:05:33;;;;;;;7.45;4.00;;;12.70;99.90;;;;;;4996610;28;20052;-65
2023/06/30 02:07:59;;;;;;;5.65;3.20;;;12.70;99.90;;;;;;4997130;28;20046;-64
2023/06/30 02:10:25;;;;;;;9.30;3.72;;;12.70;99.90;;;;;;4997222;28;20414;-64
2023/06/30 02:12:51;;;;;;;6.78;3.67;;;12.70;99.90;;;;;;4996562;28;20057;-64
2023/06/30 02:15:17;;;;;;;7.65;4.07;;;12.60;99.90;;;;;;4996888;28;20054;-64
2023/06/30 02:17:42;;;;;;;10.35;3.92;;;12.60;99.90;;;;;;4996283;28;20451;-64
2023/06/30 02:20:09;;;;;;;8.80;4.00;;;12.60;99.90;;;;;;4981164;28;20216;-64
2023/06/30 02:22:37;;;;;;;9.45;3.22;;;12.60;99.90;;;;;;5014144;28;20486;-64
2023/06/30 02:25:03;;;;;;;9.77;3.83;;;12.60;99.90;;;;;;5013413;28;20045;-64
2023/06/30 02:27:29;;;;;;;7.75;3.85;;;12.50;99.90;;;;;;5014223;28;20124;-64
2023/06/30 02:29:55;;;;;;;7.28;3.50;;;12.50;99.90;;;;;;4996657;28;20456;-64
2023/06/30 02:32:21;;;;;;;7.57;3.90;;;12.50;99.90;;;;;;5013194;28;20034;-64
2023/06/30 02:34:47;;;;;;;5.97;2.97;;;12.40;99.90;;;;;;5014057;28;20089;-64
2023/06/30 02:37:13;;;;;;;7.75;3.38;;;12.40;99.90;;;;;;4996598;28;20050;-64
2023/06/30 02:39:38;;;;;;;8.88;4.38;;;12.40;99.90;;;;;;4996033;28;20045;-64
2023/06/30 02:42:04;;;;;;;8.00;3.40;;;12.40;99.90;;;;;;5014209;28;20040;-64
2023/06/30 02:44:30;;;;;;;11.23;3.70;;;12.40;99.90;;;;;;4996270;28;20403;-64
2023/06/30 02:46:56;;;;;;;6.55;3.60;;;12.30;99.90;;;;;;5013278;28;20037;-64
2023/06/30 02:49:23;;;;;;;7.95;4.00;;;12.30;99.90;;;;;;4996477;28;20042;-64
2023/06/30 02:51:49;;;;;;;9.25;4.32;;;12.30;99.90;;;;;;4996223;28;20042;-64
2023/06/30 02:54:15;;;;;;;7.65;3.90;;;12.30;99.90;;;;;;5012635;28;20038;-64
2023/06/30 02:56:40;;;;;;;11.48;3.65;;;12.30;99.90;;;;;;5013369;28;20045;-64
2023/06/30 02:59:06;;;;;;;6.95;3.53;;;12.20;99.90;;;;;;5013662;28;20061;-64
2023/06/30 03:01:32;;;;;;;6.78;3.38;;;12.20;99.90;;;;;;5012991;28;20483;-64
2023/06/30 03:03:57;;;;;;;7.07;3.70;;;12.20;99.90;;;;;;4995843;28;20046;-65
2023/06/30 03:06:23;;;;;;;9.30;3.33;;;12.20;99.90;;;;;;4995633;28;20034;-64
2023/06/30 03:08:49;;;;;;;6.00;3.58;;;12.20;99.90;;;;;;4995081;28;20117;-64
2023/06/30 03:11:15;;;;;;;6.47;3.80;;;12.10;99.90;;;;;;4995896;28;20042;-64
2023/06/30 03:13:41;;;;;;;8.23;4.30;;;12.10;99.90;;;;;;4979937;28;20141;-65
2023/06/30 03:16:07;;;;;;;6.43;3.72;;;12.10;99.90;;;;;;5012672;28;20490;-64
2023/06/30 03:18:33;;;;;;;9.98;4.05;;;12.10;99.90;;;;;;4995849;28;20144;-64
2023/06/30 03:20:59;;;;;;;9.98;4.40;;;12.10;99.90;;;;;;5013181;28;20078;-65
2023/06/30 03:23:25;;;;;;;7.65;3.72;;;12.10;99.90;;;;;;4995010;28;20121;-65
2023/06/30 03:25:50;;;;;;;7.38;3.78;;;12.10;99.90;;;;;;4995910;28;20041;-64
2023/06/30 03:28:16;;;;;;;10.57;4.38;;;12.10;99.90;;;;;;5012277;28;20476;-64
2023/06/30 03:30:41;;;;;;;8.63;3.15;;;12.10;99.90;;;;;;4995992;28;20482;-64
2023/06/30 03:33:07;;;;;;;8.77;3.92;;;12.10;99.90;;;;;;4996030;28;20476;-64
2023/06/30 03:35:33;;;;;;;8.35;3.70;;;12.10;99.90;;;;;;4994508;28;20483;-64
2023/06/30 03:37:59;;;;;;;8.82;3.45;;;12.20;99.90;;;;;;5012920;28;20037;-64
2023/06/30 03:40:25;;;;;;;9.02;4.32;;;12.20;99.90;;;;;;4995246;28;20042;-65
2023/06/30 03:42:50;;;;;;;7.18;3.65;;;12.20;99.90;;;;;;5011983;28;20048;-64
2023/06/30 03:45:16;;;;;;;7.18;3.75;;;12.20;99.90;;;;;;5012832;28;20037;-65
2023/06/30 03:47:42;;;;;;;8.90;4.00;;;12.30;99.90;;;;;;4995329;28;20041;-65
2023/06/30 03:50:08;;;;;;;14.05;9.43;;;12.30;99.90;;;;;;4994669;28;20091;-65
2023/06/30 03:52:34;;;;;;;8.13;4.47;;;12.40;99.90;;;;;;4995261;28;20144;-64
2023/06/30 03:54:59;;;;;;;8.32;4.40;;;12.40;99.90;;;;;;4995034;28;20129;-65
2023/06/30 03:57:25;;;;;;;12.95;4.57;;;12.50;99.90;;;;;;4994215;28;20470;-65
2023/06/30 03:59:51;;;;;;;8.05;4.05;;;12.50;99.90;;;;;;5012820;28;20042;-64
2023/06/30 04:02:17;;;;;;;10.30;6.13;;;12.50;99.90;;;;;;4995171;28;20172;-64
2023/06/30 04:04:42;;;;;;;9.88;4.38;;;12.60;99.90;;;;;;5011895;28;20041;-64
2023/06/30 04:07:08;;;;;;;9.15;4.38;;;12.60;99.90;;;;;;4994888;28;20525;-64
2023/06/30 04:09:34;;;;;;;9.52;4.70;;;12.60;99.90;;;;;;5012471;28;20069;-65
2023/06/30 04:12:00;;;;;;;9.95;4.75;;;12.70;99.90;;;;;;5011618;28;20052;-64
2023/06/30 04:14:26;;;;;;;10.07;4.38;;;12.70;99.90;;;;;;4994806;28;20406;-64
2023/06/30 04:16:51;;;;;;;9.50;4.10;;;12.80;99.90;;;;;;5012433;28;20129;-65
2023/06/30 04:19:17;;;;;;;7.82;3.67;;;12.70;99.90;;;;;;4993642;28;20550;-64
2023/06/30 04:21:43;;;;;;;9.38;4.15;;;12.80;99.90;;;;;;4995080;28;20453;-65
2023/06/30 04:24:08;;;;;;;9.27;3.67;;;12.90;99.90;;;;;;4995136;28;20464;-65
2023/06/30 04:26:35;;;;;;;9.35;3.97;;;12.90;99.90;;;;;;4977710;28;20045;-65
2023/06/30 04:29:02;;;;;;;12.00;4.50;;;12.90;99.90;;;;;;4994584;28;20046;-65
2023/06/30 04:31:27;;;;;;;8.90;4.03;;;13.00;99.90;;;;;;5011359;28;20034;-65
2023/06/30 04:33:53;;;;;;;12.48;4.88;;;13.00;99.90;;;;;;5012084;28;20085;-65
2023/06/30 04:36:20;;;;;;;9.23;4.22;;;13.00;99.90;;;;;;4994742;28;20037;-64
2023/06/30 04:38:48;;;;;;;9.93;3.75;;;13.10;99.90;;;;;;4994088;28;20045;-64
2023/06/30 04:41:14;;;;;;;9.68;4.40;;;13.20;99.90;;;;;;4978286;28;20125;-64
2023/06/30 04:43:41;;;;;;;8.02;3.47;;;13.30;99.90;;;;;;4994552;28;20046;-64
2023/06/30 04:46:06;;;;;;;9.50;4.05;;;13.40;99.90;;;;;;4994068;28;20096;-64
2023/06/30 04:48:33;;;;;;;11.38;3.97;;;13.40;99.90;;;;;;4994373;28;20082;-64
2023/06/30 04:50:59;;;;;;;8.10;3.38;;;13.40;99.90;;;;;;5012075;28;20144;-64
2023/06/30 04:53:25;;;;;;;8.48;3.78;;;13.50;99.90;;;;;;4977712;28;20439;-64
2023/06/30 04:55:51;;;;;;;8.93;3.28;;;13.50;99.90;;;;;;4994510;28;20087;-65
2023/06/30 04:58:18;;;;;;;10.43;4.05;;;13.50;99.90;;;;;;4978435;28;20042;-65
2023/06/30 05:00:43;;;;;;;8.98;3.88;;;13.50;99.90;;;;;;4993323;28;20057;-64
2023/06/30 05:03:09;;;;;;;6.03;3.00;;;13.60;99.90;;;;;;4992471;28;20046;-64
2023/06/30 05:05:35;;;;;;;11.80;3.92;;;13.70;99.90;;;;;;4975189;28;20054;-64
2023/06/30 05:08:01;;;;;;;8.73;2.95;;;13.70;99.90;;;;;;4974328;28;20392;-64
2023/06/30 05:10:27;;;;;;;9.73;3.85;;;13.90;99.90;;;;;;4958619;28;20142;-64
2023/06/30 05:12:52;;;;;;;7.35;2.90;;;14.00;99.90;;;;;;4974849;28;20038;-64
2023/06/30 05:15:18;;;;;;;6.82;2.72;;;14.20;99.90;;;;;;4990711;28;20080;-65
2023/06/30 05:17:44;;;;;;;6.28;2.80;;;14.30;99.90;;;;;;4974131;28;20097;-64
2023/06/30 05:20:10;;;;;;;9.70;3.47;;;14.50;99.90;;;;;;4995086;28;20042;-64
2023/06/30 05:22:35;;;;;;;7.32;3.03;;;14.70;99.90;;;;;;4976261;28;20101;-64
2023/06/30 05:25:02;;;;;;;9.68;2.90;;;14.80;99.90;;;;;;4994369;28;20403;-64
2023/06/30 05:27:27;;;;;;;6.97;3.17;;;14.90;99.90;;;;;;4996823;28;20060;-64
2023/06/30 05:29:53;;;;;;;7.53;3.03;;;15.10;99.90;;;;;;4995974;28;20475;-64
2023/06/30 05:32:19;;;;;;;6.05;2.88;;;15.20;99.90;;;;;;4996506;28;20034;-64
2023/06/30 05:34:46;;;;;;;5.97;2.75;;;15.30;99.90;;;;;;5013367;28;20399;-64
2023/06/30 05:37:12;;;;;;;5.65;2.60;;;15.40;99.90;;;;;;4996895;28;20077;-64
2023/06/30 05:39:38;;;;;;;5.53;2.53;;;15.60;99.90;;;;;;4996579;28;20482;-64
2023/06/30 05:42:04;;;;;;;8.57;2.47;;;15.70;99.90;;;;;;4995546;28;20037;-64
2023/06/30 05:44:30;;;;;;;7.57;1.92;;;15.80;99.90;;;;;;5013814;28;20081;-64
2023/06/30 05:46:56;;;;;;;5.55;2.13;;;15.90;99.90;;;;;;5014022;28;20062;-64
2023/06/30 05:49:22;;;;;;;5.63;1.80;;;16.00;99.90;;;;;;4995665;28;20484;-64
2023/06/30 05:51:48;;;;;;;4.82;1.75;;;16.10;99.90;;;;;;4996462;28;20502;-64
2023/06/30 05:54:14;;;;;;;6.85;2.15;;;16.20;99.90;;;;;;4996088;28;20121;-64
2023/06/30 05:56:40;;;;;;;7.15;2.15;;;16.30;99.90;;;;;;5013209;28;20042;-64
2023/06/30 05:59:10;;;;;;;8.40;2.78;;;16.40;99.90;;;;;;5014060;28;20554;-64
2023/06/30 06:01:38;;;;;;;6.07;2.38;;;16.40;99.90;;;;;;4980008;28;20038;-64
2023/06/30 06:04:08;;;;;;;5.80;2.55;;;16.50;99.90;;;;;;4994889;28;20544;-64
2023/06/30 06:06:34;;;;;;;10.10;3.10;;;16.60;99.90;;;;;;4995742;28;20026;-64
2023/06/30 06:08:59;;;;;;;9.20;2.45;;;16.60;99.90;;;;;;5012610;28;20176;-64
2023/06/30 06:11:25;;;;;;;4.75;2.05;;;16.60;99.90;;;;;;4988789;28;20035;-64
2023/06/30 06:13:51;;;;;;;11.25;2.80;;;16.60;99.90;;;;;;4956167;28;1134206;-66
2023/06/30 06:16:16;;;;;;;6.13;2.30;;;16.70;99.90;;;;;;4996221;28;20046;-64
2023/06/30 06:18:42;;;;;;;6.70;1.90;;;16.70;99.90;;;;;;5011421;28;20038;-64
2023/06/30 06:21:08;;;;;;;6.30;2.00;;;16.70;99.90;;;;;;4979276;28;20496;-65
2023/06/30 06:23:34;;;;;;;5.43;1.75;;;16.90;99.90;;;;;;4996820;28;20049;-64
2023/06/30 06:26:01;;;;;;;7.45;1.90;;;16.90;99.90;;;;;;4979356;28;20049;-64
2023/06/30 06:28:27;;;;;;;6.60;2.22;;;17.00;99.90;;;;;;4996612;28;20037;-64
2023/06/30 06:30:53;;;;;;;15.48;2.63;;;16.90;99.90;;;;;;4995599;28;20364;-64
2023/06/30 06:33:20;;;;;;;8.27;1.95;;;16.90;99.90;;;;;;4980503;28;20368;-64
2023/06/30 06:35:46;;;;;;;7.35;2.40;;;16.90;99.90;;;;;;4992701;28;20076;-65
2023/06/30 06:38:15;;;;;;;5.97;2.08;;;16.90;99.90;;;;;;4992074;28;20050;-64
2023/06/30 06:40:40;;;;;;;6.75;2.88;;;16.90;99.90;;;;;;4994148;28;20394;-64
2023/06/30 06:43:06;;;;;;;6.13;2.17;;;17.00;99.90;;;;;;4978113;28;20061;-64
2023/06/30 06:45:32;;;;;;;7.05;2.10;;;17.00;99.90;;;;;;5010934;28;20038;-64
2023/06/30 06:48:20;;;;;;;9.43;2.35;;;17.10;99.90;;;;;;4993703;28;20089;-63
2023/06/30 06:50:54;;;;;;;6.80;1.90;;;17.20;99.90;;;;;;5011933;28;20044;-65
2023/06/30 06:53:23;;;;;;;5.65;2.03;;;17.30;99.90;;;;;;4977923;28;20060;-64
2023/06/30 06:55:50;;;;;;;7.78;1.90;;;17.30;99.90;;;;;;4960305;28;20093;-64
2023/06/30 06:58:16;;;;;;;7.85;1.98;;;17.40;99.90;;;;;;5008753;28;20125;-64
2023/06/30 07:00:44;;;;;;;6.43;1.90;;;17.40;99.90;;;;;;4992462;28;20037;-65
2023/06/30 07:03:09;;;;;;;7.07;1.63;;;17.50;99.90;;;;;;5010682;28;20789;-64
2023/06/30 07:05:35;;;;;;;6.63;1.75;;;17.40;99.90;;;;;;5009523;28;20030;-64
2023/06/30 07:08:01;;;;;;;6.65;1.73;;;17.30;99.90;;;;;;4975223;28;20046;-65
2023/06/30 07:10:28;;;;;;;5.72;1.90;;;17.30;99.90;;;;;;4992369;28;20463;-63
2023/06/30 07:12:54;;;;;;;6.45;1.70;;;17.10;99.90;;;;;;4992391;28;20532;-64
2023/06/30 07:15:20;;;;;;;8.77;2.00;;;17.10;99.90;;;;;;4991684;28;20061;-64
2023/06/30 07:17:46;;;;;;;4.38;1.70;;;17.10;99.90;;;;;;4992122;28;20100;-64
2023/06/30 07:20:12;;;;;;;4.82;1.52;;;17.10;99.90;;;;;;4992061;28;20132;-64
2023/06/30 07:22:37;;;;;;;6.10;1.67;;;17.20;99.90;;;;;;4976345;28;20128;-64
2023/06/30 07:25:06;;;;;;;7.40;1.92;;;17.40;99.90;;;;;;5010066;28;20104;-64
2023/06/30 07:27:32;;;;;;;7.88;2.00;;;17.40;99.90;;;;;;4975999;28;20487;-64
2023/06/30 07:29:57;;;;;;;4.90;1.77;;;17.50;99.90;;;;;;4992278;28;20080;-64
2023/06/30 07:32:23;;;;;;;4.70;1.75;;;17.60;99.90;;;;;;4992113;28;20141;-63
2023/06/30 07:34:49;;;;;;;6.18;1.98;;;17.80;99.90;;;;;;5008707;28;20053;-63
2023/06/30 07:37:14;;;;;;;7.20;2.35;;;17.80;99.90;;;;;;4992379;28;20049;-63
2023/06/30 07:39:40;;;;;;;7.60;2.10;;;17.80;99.90;;;;;;5008549;28;20040;-63
2023/06/30 07:42:06;;;;;;;5.50;2.22;;;17.80;99.90;;;;;;5006337;28;20042;-64
2023/06/30 07:44:32;;;;;;;3.78;1.38;;;18.00;99.90;;;;;;4991462;28;20060;-64
2023/06/30 07:46:58;;;;;;;7.63;1.70;;;18.10;99.90;;;;;;5008040;28;20045;-63
2023/06/30 07:49:24;;;;;;;6.65;1.70;;;18.20;99.90;;;;;;5003274;28;20044;-64
2023/06/30 07:51:50;;;;;;;6.32;1.52;;;18.30;99.90;;;;;;5009151;28;20060;-63
2023/06/30 07:54:16;;;;;;;4.63;1.63;;;18.30;99.90;;;;;;5010420;28;20037;-64
2023/06/30 07:56:42;;;;;;;4.95;1.67;;;18.40;99.90;;;;;;4988907;28;20447;-63
2023/06/30 07:59:07;;;;;;;6.13;1.70;;;18.50;99.90;;;;;;4973163;28;20034;-62
2023/06/30 08:01:33;;;;;;;4.00;1.65;;;18.60;99.90;;;;;;4985944;28;20042;-63
2023/06/30 08:03:59;;;;;;;7.25;2.60;;;18.60;99.90;;;;;;4992464;28;20149;-62
2023/06/30 08:06:25;;;;;;;6.40;1.85;;;18.50;99.90;;;;;;5011959;28;20033;-63
2023/06/30 08:08:50;;;;;;;5.55;1.90;;;18.50;99.90;;;;;;4994547;28;20045;-64
2023/06/30 08:11:16;;;;;;;3.90;1.55;;;18.50;99.90;;;;;;5011433;28;20498;-64
2023/06/30 08:13:42;;;;;;;4.03;1.65;;;18.50;99.90;;;;;;4994689;28;20478;-64
2023/06/30 08:16:07;;;;;;;3.63;1.25;;;18.60;99.90;;;;;;4994754;28;20046;-64
2023/06/30 08:18:33;;;;;;;8.23;1.65;;;18.70;99.90;;;;;;4978213;28;20045;-64
2023/06/30 08:20:59;;;;;;;5.43;1.85;;;18.80;99.90;;;;;;4995339;28;20077;-64
2023/06/30 08:23:25;;;;;;;3.92;1.58;;;18.70;99.90;;;;;;5011998;28;20476;-64
2023/06/30 08:25:54;;;;;;;4.55;1.67;;;18.80;99.90;;;;;;5012275;28;20034;-64
2023/06/30 08:28:20;;;;;;;4.85;1.90;;;18.80;99.90;;;;;;4994721;28;20045;-64
2023/06/30 08:30:46;;;;;;;4.82;1.83;;;18.80;99.90;;;;;;5011610;28;20038;-62
2023/06/30 08:33:12;;;;;;;7.57;1.63;;;18.90;99.90;;;;;;4995022;28;20033;-65
2023/06/30 08:35:37;;;;;;;5.00;1.52;;;19.00;99.90;;;;;;4994911;28;20041;-66
2023/06/30 08:38:03;;;;;;;11.80;2.28;;;19.10;99.90;;;;;;5011794;28;20077;-66
2023/06/30 08:40:31;;;;;;;6.93;1.80;;;19.10;99.90;;;;;;4993984;28;20037;-66
2023/06/30 08:43:02;;;;;;;3.85;1.60;;;19.20;99.90;;;;;;5011512;28;20442;-66
2023/06/30 08:45:29;;;;;;;6.75;1.67;;;19.30;99.90;;;;;;5011140;28;20050;-66
2023/06/30 08:48:05;;;;;;;7.88;2.35;;;19.30;99.90;;;;;;4993680;28;20038;-66
2023/06/30 08:50:34;;;;;;;7.20;1.80;;;19.40;99.90;;;;;;4994195;28;20041;-67
2023/06/30 08:53:01;;;;;;;5.95;1.77;;;19.50;99.90;;;;;;4994611;28;20125;-66
2023/06/30 08:55:27;;;;;;;5.05;1.40;;;19.50;99.90;;;;;;4981471;28;20076;-63
2023/06/30 08:57:57;;;;;;;4.45;1.42;;;19.50;99.90;;;;;;4982342;28;20077;-63
2023/06/30 09:00:26;;;;;;;6.68;1.90;;;19.30;99.90;;;;;;4997221;28;20046;-65
2023/06/30 09:02:55;;;;;;;5.75;1.58;;;19.40;99.90;;;;;;4981340;28;20548;-65
2023/06/30 09:05:23;;;;;;;4.15;1.90;;;19.40;99.90;;;;;;4998635;28;20429;-66
2023/06/30 09:07:54;;;;;;;5.65;2.05;;;19.50;99.90;;;;;;4997513;28;20053;-67
2023/06/30 09:10:23;;;;;;;5.32;1.80;;;19.50;99.90;;;;;;5015802;28;20509;-66
2023/06/30 09:12:51;;;;;;;5.45;2.17;;;19.50;99.90;;;;;;5015227;28;20050;-66
2023/06/30 09:15:19;;;;;;;4.90;1.85;;;19.70;99.90;;;;;;5012599;28;20133;-66
2023/06/30 09:17:46;;;;;;;7.53;2.10;;;19.80;99.90;;;;;;5014798;28;20037;-66
2023/06/30 09:20:12;;;;;;;11.77;1.90;;;19.90;99.90;;;;;;4996623;28;20548;-66
2023/06/30 09:22:43;;;;;;;5.80;2.22;;;20.00;99.90;;;;;;4981578;28;20080;-65
2023/06/30 09:25:27;;;;;;;7.45;1.80;;;19.90;99.90;;;;;;4981059;28;20074;-66
2023/06/30 09:27:56;;;;;;;5.55;2.13;;;19.60;99.90;;;;;;5001426;28;20049;-66
2023/06/30 09:30:32;;;;;;;4.05;1.70;;;19.60;99.90;;;;;;5014425;28;20556;-66
2023/06/30 09:32:58;;;;;;;5.50;2.15;;;19.70;99.90;;;;;;4996456;28;20521;-66
2023/06/30 09:35:23;;;;;;;6.47;1.70;;;19.80;99.90;;;;;;5007704;28;20034;-68
2023/06/30 09:37:50;;;;;;;6.72;1.98;;;20.00;99.90;;;;;;4996903;28;20077;-65
2023/06/30 09:40:17;;;;;;;4.63;2.03;;;19.90;99.90;;;;;;4980283;28;20407;-66
2023/06/30 09:42:44;;;;;;;4.38;2.00;;;19.70;99.90;;;;;;4996174;28;20049;-66
2023/06/30 09:45:13;;;;;;;6.22;2.38;;;19.50;99.90;;;;;;5005557;28;20088;-66
2023/06/30 09:47:39;;;;;;;7.05;2.13;;;19.40;99.90;;;;;;4979776;28;20046;-66
2023/06/30 09:50:05;;;;;;;5.28;1.75;;;19.60;99.90;;;;;;4985345;28;20514;-65
2023/06/30 09:52:33;;;;;;;5.78;1.90;;;19.80;99.90;;;;;;4979443;28;20506;-65
2023/06/30 09:55:08;;;;;;;5.95;2.00;;;20.00;99.90;;;;;;5010702;28;20038;-67
2023/06/30 09:57:37;;;;;;;8.60;2.58;;;20.20;99.90;;;;;;4994445;28;20046;-67
2023/06/30 10:00:04;;;;;;;7.55;2.30;;;20.20;99.90;;;;;;4995983;28;20044;-65
2023/06/30 10:02:31;;;;;;;8.10;1.88;;;20.00;99.90;;;;;;5013884;28;20038;-67
2023/06/30 10:04:56;;;;;;;5.47;1.83;;;19.70;99.90;;;;;;5012879;28;20055;-66
2023/06/30 10:07:23;;;;;;;7.22;2.20;;;19.70;99.90;;;;;;4997208;28;20038;-66
2023/06/30 10:09:52;;;;;;;4.30;1.90;;;19.70;99.90;;;;;;4995473;28;20056;-65
2023/06/30 10:12:19;;;;;;;6.13;1.88;;;19.70;99.90;;;;;;5014101;28;20030;-66
2023/06/30 10:14:47;;;;;;;4.57;1.65;;;19.60;99.80;;;;;;5008084;28;20567;-65
2023/06/30 10:17:14;;;;;;;4.95;1.75;;;19.50;99.80;;;;;;5009597;28;20538;-65
2023/06/30 10:19:41;;;;;;;7.95;1.88;;;19.50;99.90;;;;;;4996262;28;20052;-63
2023/06/30 10:22:07;;;;;;;6.15;2.03;;;19.50;98.90;;;;;;4996609;28;20073;-66
2023/06/30 10:24:41;;;;;;;4.93;1.40;;;19.80;98.80;;;;;;5012483;28;20042;-65
2023/06/30 10:27:09;;;;;;;5.38;1.40;;;19.90;97.70;;;;;;4990681;28;20038;-65
2023/06/30 10:29:35;;;;;;;5.72;2.00;;;20.00;97.80;;;;;;5007740;28;20034;-64
2023/06/30 10:32:03;;;;;;;5.72;1.60;;;20.10;98.50;;;;;;4995494;28;20475;-64
2023/06/30 10:34:30;;;;;;;5.20;1.60;;;20.30;97.90;;;;;;4982691;28;20046;-64
2023/06/30 10:36:57;;;;;;;4.97;1.70;;;20.30;97.20;;;;;;4996070;28;20395;-65
2023/06/30 10:39:24;;;;;;;3.97;1.70;;;20.30;96.90;;;;;;5012920;28;20038;-65
2023/06/30 10:41:50;;;;;;;5.57;1.88;;;20.40;96.70;;;;;;4979291;28;20080;-65
2023/06/30 10:44:19;;;;;;;3.70;1.50;;;20.70;96.80;;;;;;5012676;28;20070;-65
2023/06/30 10:46:49;;;;;;;6.80;2.00;;;21.00;96.50;;;;;;4976957;28;20074;-64
2023/06/30 10:49:31;;;;;;;4.75;1.70;;;21.20;95.40;;;;;;4995414;28;20037;-65
2023/06/30 10:51:59;;;;;;;6.07;1.50;;;20.90;93.30;;;;;;5013175;28;20108;-65
2023/06/30 10:54:29;;;;;;;6.05;1.90;;;20.60;93.80;;;;;;4996614;28;20435;-67
2023/06/30 10:57:11;;;;;;;4.78;1.50;;;20.60;93.50;;;;;;4995904;28;20148;-65
2023/06/30 10:59:45;;;;;;;5.63;2.08;;;20.80;94.60;;;;;;4995628;28;20487;-65
2023/06/30 11:02:12;;;;;;;5.47;1.92;;;20.90;94.90;;;;;;5012060;28;20050;-67
2023/06/30 11:04:39;;;;;;;4.25;1.73;;;21.00;95.00;;;;;;4994498;28;20396;-65
2023/06/30 11:07:10;;;;;;;5.75;1.60;;;21.00;94.60;;;;;;4990262;28;20068;-65
2023/06/30 11:09:48;;;;;;;3.33;1.35;;;21.10;94.10;;;;;;4995908;28;20049;-65
2023/06/30 11:12:23;;;;;;;5.97;2.15;;;21.20;92.50;;;;;;4995376;28;20116;-63
2023/06/30 11:14:52;;;;;;;7.70;2.15;;;21.20;93.40;;;;;;4995172;28;20140;-65
2023/06/30 11:17:18;;;;;;;4.55;1.70;;;21.40;93.40;;;;;;4995656;28;20422;-65
2023/06/30 11:20:12;;;;;;;6.38;2.28;;;21.40;93.70;;;;;;4994797;28;20042;-65
2023/06/30 11:22:40;;;;;;;5.43;2.08;;;21.40;93.50;;;;;;5013331;28;20125;-66
2023/06/30 11:25:11;;;;;;;3.92;1.55;;;21.20;93.40;;;;;;4979485;28;20130;-66
2023/06/30 11:27:38;;;;;;;5.28;1.63;;;21.30;93.60;;;;;;5012824;28;20034;-66
2023/06/30 11:30:05;;;;;;;4.40;1.95;;;21.40;92.80;;;;;;4995613;28;20049;-65
2023/06/30 11:32:32;;;;;;;6.00;2.00;;;21.40;92.50;;;;;;4979702;28;20045;-67
2023/06/30 11:35:01;;;;;;;4.85;1.60;;;21.40;92.30;;;;;;5005452;28;20051;-65
2023/06/30 11:37:27;;;;;;;2.67;1.20;;;21.40;92.30;;;;;;5003954;28;20038;-65
2023/06/30 11:39:54;;;;;;;8.70;2.13;;;21.30;92.30;;;;;;5032569;28;20037;-66
2023/06/30 11:42:20;;;;;;;6.53;2.10;;;21.50;92.90;;;;;;5031535;28;20045;-67
2023/06/30 11:44:50;;;;;;;6.32;1.85;;;21.40;92.70;;;;;;4978497;28;20531;-66
2023/06/30 11:47:18;;;;;;;6.63;2.10;;;21.50;93.10;;;;;;4994629;28;20042;-69
2023/06/30 11:49:48;;;;;;;4.30;1.70;;;21.50;92.90;;;;;;4986356;28;20045;-68
2023/06/30 11:52:15;;;;;;;6.00;2.13;;;21.40;92.40;;;;;;5011291;28;20045;-66
2023/06/30 11:54:41;;;;;;;4.68;1.90;;;21.20;92.80;;;;;;4994518;28;20049;-66
2023/06/30 11:57:08;;;;;;;4.95;1.70;;;21.10;93.40;;;;;;4995234;28;20029;-69
2023/06/30 11:59:34;;;;;;;5.18;1.73;;;21.20;93.30;;;;;;5012946;28;20406;-69
2023/06/30 12:02:02;;;;;;;5.70;1.92;;;21.40;93.20;;;;;;5012304;28;20045;-66
2023/06/30 12:04:35;;;;;;;5.10;2.30;;;21.30;92.50;;;;;;4994880;28;20503;-68
2023/06/30 12:07:05;;;;;;;5.25;2.15;;;21.20;92.70;;;;;;4995240;28;20513;-69
2023/06/30 12:09:34;;;;;;;8.07;2.42;;;21.40;93.50;;;;;;4994352;28;20056;-66
2023/06/30 12:12:00;;;;;;;8.20;5.47;;;21.50;92.70;;;;;;4989029;28;20124;-67
2023/06/30 12:14:26;;;;;;;6.93;2.53;;;21.80;92.90;;;;;;5012275;28;20061;-66
2023/06/30 12:16:53;;;;;;;9.73;3.67;;;21.90;92.50;;;;;;4994113;28;20132;-66
2023/06/30 12:19:27;;;;;;;6.47;2.25;;;22.00;91.30;;;;;;4994600;28;20510;-66
2023/06/30 12:22:00;;;;;;;7.35;2.55;;;21.80;90.30;;;;;;4994830;28;20041;-66
2023/06/30 12:24:34;;;;;;;5.17;2.27;;;21.70;90.20;;;;;;4993951;28;20491;-66
2023/06/30 12:27:07;;;;;;;5.47;2.20;;;21.50;90.40;;;;;;4994519;28;20495;-66
2023/06/30 12:29:35;;;;;;;6.15;2.15;;;21.50;90.80;;;;;;5012273;28;20100;-65
2023/06/30 12:32:10;;;;;;;4.28;1.80;;;21.60;90.20;;;;;;4994308;28;20117;-65
2023/06/30 12:34:36;;;;;;;5.28;2.08;;;21.70;90.00;;;;;;5012330;28;20049;-66
2023/06/30 12:37:03;;;;;;;7.18;2.30;;;21.80;89.40;;;;;;4977917;28;20042;-66
2023/06/30 12:39:29;;;;;;;6.07;2.38;;;21.70;89.80;;;;;;4994860;28;20057;-65
2023/06/30 12:41:55;;;;;;;5.43;1.88;;;21.80;90.10;;;;;;4994626;28;20570;-67
2023/06/30 12:44:21;;;;;;;5.18;2.00;;;22.00;90.40;;;;;;4977458;28;20052;-67